Septiembre 2004

Fecha / Hora Temperatura (*F) Dew Point (*F) Humedad Relativa (%)
9/1/2004 0:25 80.82 42.96 26.2
9/1/2004 0:55 80.12 42.36 26.2
9/1/2004 1:25 78.71 42.04 27.1
9/1/2004 1:55 78.71 42.98 28.1
9/1/2004 2:25 77.31 42.6 29
9/1/2004 2:55 79.41 44.86 29.5
9/1/2004 3:25 78.71 45.48 30.9
9/1/2004 3:55 78.01 45.7 31.9
9/1/2004 4:25 76.62 46.78 34.8
9/1/2004 4:55 76.62 47.54 35.8
9/1/2004 5:25 73.84 47.22 38.8
9/1/2004 5:55 74.53 46.78 37.3
9/1/2004 6:25 76.62 46.78 34.8
9/1/2004 6:55 82.95 46.6 28.1
9/1/2004 7:25 88.01 49.54 26.7
9/1/2004 7:55 89.48 49.76 25.7
9/1/2004 8:25 91.71 51.22 25.3
9/1/2004 8:55 91.71 52.16 26.2
9/1/2004 9:25 93.97 50.54 23
9/1/2004 9:55 95.49 49.1 20.8
9/1/2004 10:25 97.04 47.52 18.7
9/1/2004 10:55 99.39 46.26 16.6
9/1/2004 11:25 100.18 44.9 15.4
9/1/2004 11:55 103.41 45.5 14.3
9/1/2004 12:25 104.23 42.4 12.4
9/1/2004 12:55 103.41 35.76 9.8
9/1/2004 13:25 102.6 39.44 11.6
9/1/2004 13:55 103.41 32.22 8.5
9/1/2004 14:25 104.23 33.68 8.8
9/1/2004 14:55 102.6 34.38 9.5
9/1/2004 15:25 100.98 30.42 8.5
9/1/2004 15:55 100.98 34.96 10.2
9/1/2004 16:25 100.98 36.62 10.9
9/1/2004 16:55 99.39 36.32 11.3
9/1/2004 17:25 97.82 34.22 10.9
9/1/2004 17:55 96.26 41.8 15.4
9/1/2004 18:25 94.73 39.92 15
9/1/2004 18:55 92.46 39.46 15.8
9/1/2004 19:25 91.71 41.48 17.5
9/1/2004 19:55 90.96 41.46 17.9
9/1/2004 20:25 89.48 41.4 18.7
9/1/2004 20:55 87.28 41.84 20.4
9/1/2004 21:25 86.55 45.92 24.4
9/1/2004 21:55 85.1 46.08 25.7
9/1/2004 22:25 82.95 44.26 25.7
9/1/2004 22:55 82.95 45.66 27.1
9/1/2004 23:25 82.24 45.52 27.6
9/1/2004 23:55 80.82 46.08 29.5
9/2/2004 0:25 79.41 44.42 29
9/2/2004 0:55 79.41 45.3 30
9/2/2004 1:25 78.01 43.66 29.5
9/2/2004 1:55 78.01 44.1 30
9/2/2004 2:25 78.71 42.98 28.1
9/2/2004 2:55 77.31 43.48 30
9/2/2004 3:25 76.62 43.66 30.9
9/2/2004 3:55 75.92 42.28 30
9/2/2004 4:25 77.31 40.86 27.1
9/2/2004 4:55 76.62 41.56 28.5
9/2/2004 5:25 75.22 41.68 30
9/2/2004 5:55 75.22 40.82 29
9/2/2004 6:25 76.62 40.74 27.6
9/2/2004 6:55 82.95 40.34 22.1
9/2/2004 7:25 87.28 39.6 18.7
9/2/2004 7:55 88.01 41.94 20
9/2/2004 8:25 90.22 43.74 20
9/2/2004 8:55 91.71 44.96 20
9/2/2004 9:25 91.71 47.12 21.7
9/2/2004 9:55 93.97 46.14 19.5
9/2/2004 10:25 94.73 46.76 19.5
9/2/2004 10:55 95.49 48.06 20
9/2/2004 11:25 96.26 49.74 20.8
9/2/2004 11:55 97.04 48.64 19.5
9/2/2004 12:25 96.26 48.68 20
9/2/2004 12:55 97.04 49.84 20.4
9/2/2004 13:25 96.26 47.46 19.1
9/2/2004 13:55 97.04 46.36 17.9
9/2/2004 14:25 97.82 47.58 18.3
9/2/2004 14:55 97.04 47.52 18.7
9/2/2004 15:25 95.49 45.7 18.3
9/2/2004 15:55 94.73 46.2 19.1
9/2/2004 16:25 93.97 45.04 18.7
9/2/2004 16:55 91.71 47.12 21.7
9/2/2004 17:25 90.22 46.96 22.6
9/2/2004 17:55 88.01 46.16 23.5
9/2/2004 18:25 85.83 45.74 24.8
9/2/2004 18:55 84.38 46.48 26.7
9/2/2004 19:25 82.95 45.66 27.1
9/2/2004 19:55 82.24 45.52 27.6
9/2/2004 20:25 81.53 44.44 27.1
9/2/2004 20:55 80.82 43.46 26.7
9/2/2004 21:25 79.41 46.92 31.9
9/2/2004 21:55 78.01 46.12 32.4
9/2/2004 22:25 76.62 44.9 32.4
9/2/2004 22:55 75.92 43.88 31.9
9/2/2004 23:25 75.92 41.86 29.5
9/2/2004 23:55 75.22 38.7 26.7
9/3/2004 0:25 73.84 37.52 26.7
9/3/2004 0:55 73.15 35.06 24.8
9/3/2004 1:25 73.15 35.06 24.8
9/3/2004 1:55 71.77 35.28 26.2
9/3/2004 2:25 71.08 35.16 26.7
9/3/2004 2:55 71.77 40.28 31.9
9/3/2004 3:25 70.39 45.14 40.3
9/3/2004 3:55 70.39 45.46 40.8
9/3/2004 4:25 69.02 44.88 41.8
9/3/2004 4:55 68.33 44.94 42.9
9/3/2004 5:25 68.33 47.62 47.5
9/3/2004 5:55 68.33 49.32 50.6
9/3/2004 6:25 69.71 50.3 50.1
9/3/2004 6:55 73.84 54.9 51.6
9/3/2004 7:25 76.62 55.46 48
9/3/2004 7:55 77.31 53.96 44.4
9/3/2004 8:25 78.71 54.28 42.9
9/3/2004 8:55 80.12 53.48 39.8
9/3/2004 9:25 81.53 54.06 38.8
9/3/2004 9:55 82.95 55.66 39.3
9/3/2004 10:25 85.1 55.76 36.8
9/3/2004 10:55 86.55 55.48 34.8
9/3/2004 11:25 88.01 54.36 31.9
9/3/2004 11:55 88.74 54.14 30.9
9/3/2004 12:25 88.74 53.32 30
9/3/2004 12:55 88.74 55 31.9
9/3/2004 13:25 87.28 53.74 31.9
9/3/2004 13:55 88.01 53.5 30.9
9/3/2004 14:25 88.74 54.14 30.9
9/3/2004 14:55 87.28 55.72 34.3
9/3/2004 15:25 85.83 57.5 38.3
9/3/2004 15:55 83.67 58.02 41.8
9/3/2004 16:25 82.95 57.04 41.3
9/3/2004 16:55 81.53 60.24 48.5
9/3/2004 17:25 79.41 61.16 53.7
9/3/2004 17:55 78.01 60.38 54.7
9/3/2004 18:25 76.62 60.68 57.9
9/3/2004 18:55 75.92 61 59.9
9/3/2004 19:25 75.22 61.32 62
9/3/2004 19:55 74.53 59.46 59.4
9/3/2004 20:25 74.53 60.66 62
9/3/2004 20:55 73.84 59.78 61.5
9/3/2004 21:25 73.84 60.24 62.5
9/3/2004 21:55 73.84 60.24 62.5
9/3/2004 22:25 73.15 60.3 64.1
9/3/2004 22:55 73.15 60.72 65.1
9/3/2004 23:25 73.15 61.8 67.6
9/3/2004 23:55 72.46 61.34 68.1
9/4/2004 0:25 72.46 62.6 71.2
9/4/2004 0:55 71.77 62.3 72.1
9/4/2004 1:25 71.77 62.5 72.6
9/4/2004 1:55 71.08 61.64 72.1
9/4/2004 2:25 70.39 61.36 73.1
9/4/2004 2:55 70.39 62.32 75.6
9/4/2004 3:25 71.08 62.6 74.6
9/4/2004 3:55 70.39 61.56 73.6
9/4/2004 4:25 70.39 63.02 77.5
9/4/2004 4:55 70.39 63.38 78.5
9/4/2004 5:25 70.39 63.38 78.5
9/4/2004 5:55 71.08 64.56 79.9
9/4/2004 6:25 72.46 65.2 78
9/4/2004 6:55 73.84 65.26 74.6
9/4/2004 7:25 76.62 64.44 66.1
9/4/2004 7:55 78.01 64.88 64.1
9/4/2004 8:25 78.71 65.28 63.5
9/4/2004 8:55 80.82 66.12 61
9/4/2004 9:25 82.24 65.12 56.3
9/4/2004 9:55 83.67 65.1 53.7
9/4/2004 10:25 84.38 64.62 51.6
9/4/2004 10:55 85.1 64.7 50.6
9/4/2004 11:25 83.67 68.26 59.9
9/4/2004 11:55 79.41 67.54 67.1
9/4/2004 12:25 80.12 69.28 69.6
9/4/2004 12:55 81.53 67.02 61.5
9/4/2004 13:25 80.82 65.82 60.4
9/4/2004 13:55 80.12 67.98 66.6
9/4/2004 14:25 80.82 64.06 56.8
9/4/2004 14:55 79.41 64.5 60.4
9/4/2004 15:25 82.24 62.08 50.6
9/4/2004 15:55 81.53 61.72 51.1
9/4/2004 16:25 80.82 61.6 52.1
9/4/2004 16:55 80.12 61.28 52.7
9/4/2004 17:25 79.41 62 55.3
9/4/2004 17:55 78.71 61.84 56.3
9/4/2004 18:25 78.01 61.7 57.3
9/4/2004 18:55 78.01 62.48 58.9
9/4/2004 19:25 77.31 62.82 61
9/4/2004 19:55 76.62 65.3 68.1
9/4/2004 20:25 77.31 65.32 66.6
9/4/2004 20:55 76.62 64.44 66.1
9/4/2004 21:25 76.62 65.1 67.6
9/4/2004 21:55 76.62 63.56 64.1
9/4/2004 22:25 76.62 64.44 66.1
9/4/2004 22:55 76.62 65.1 67.6
9/4/2004 23:25 75.92 66.68 73.1
9/4/2004 23:55 75.22 67.88 78
9/5/2004 0:25 75.22 66.6 74.6
9/5/2004 0:55 75.92 67.08 74.1
9/5/2004 1:25 75.92 66.28 72.1
9/5/2004 1:55 75.22 66.2 73.6
9/5/2004 2:25 75.22 65.82 72.6
9/5/2004 2:55 75.22 67.18 76.1
9/5/2004 3:25 75.92 66.48 72.6
9/5/2004 3:55 75.92 67.46 75.1
9/5/2004 4:25 75.92 67.66 75.6
9/5/2004 4:55 75.22 68.08 78.5
9/5/2004 5:25 74.53 69.1 83.2
9/5/2004 5:55 74.53 69.1 83.2
9/5/2004 6:25 74.53 69.24 83.6
9/5/2004 6:55 75.22 68.92 80.8
9/5/2004 7:25 77.31 69 75.6
9/5/2004 7:55 78.71 68.14 70.1
9/5/2004 8:25 79.41 67.96 68.1
9/5/2004 8:55 78.01 67.92 71.2
9/5/2004 9:25 78.01 68.88 73.6
9/5/2004 9:55 78.71 66 65.1
9/5/2004 10:25 82.24 67.44 61
9/5/2004 10:55 84.38 65.76 53.7
9/5/2004 11:25 84.38 67.38 56.8
9/5/2004 11:55 85.1 65.28 51.6
9/5/2004 12:25 84.38 66.6 55.3
9/5/2004 12:55 82.24 68.14 62.5
9/5/2004 13:25 81.53 66.78 61
9/5/2004 13:55 84.38 66.02 54.2
9/5/2004 14:25 81.53 68.44 64.6
9/5/2004 14:55 80.12 68.2 67.1
9/5/2004 15:25 80.12 67.98 66.6
9/5/2004 15:55 80.12 67.1 64.6
9/5/2004 16:25 80.82 67.54 64.1
9/5/2004 16:55 77.31 70.94 80.8
9/5/2004 17:25 75.22 70.22 84.5
9/5/2004 17:55 75.22 70.4 85
9/5/2004 18:25 75.22 69.28 81.8
9/5/2004 18:55 75.22 69.28 81.8
9/5/2004 19:25 75.22 70.54 85.4
9/5/2004 19:55 74.53 71.3 89.7
9/5/2004 20:25 74.53 70.74 88
9/5/2004 20:55 75.22 70.72 85.9
9/5/2004 21:25 75.22 71.42 88
9/5/2004 21:55 75.22 71.58 88.5
9/5/2004 22:25 73.15 70.88 92.6
9/5/2004 22:55 73.15 70.62 91.8
9/5/2004 23:25 72.46 69.68 91
9/5/2004 23:55 71.77 68.88 90.6
9/6/2004 0:25 71.08 68.44 91.4
9/6/2004 0:55 70.39 67.9 91.8
9/6/2004 1:25 71.08 68.58 91.8
9/6/2004 1:55 70.39 68.14 92.6
9/6/2004 2:25 70.39 68.4 93.4
9/6/2004 2:55 70.39 68.28 93
9/6/2004 3:25 70.39 68.28 93
9/6/2004 3:55 70.39 68.14 92.6
9/6/2004 4:25 70.39 68.02 92.2
9/6/2004 4:55 70.39 67.9 91.8
9/6/2004 5:25 70.39 67.9 91.8
9/6/2004 5:55 70.39 67.9 91.8
9/6/2004 6:25 71.08 68.2 90.6
9/6/2004 6:55 71.77 68.44 89.3
9/6/2004 7:25 73.15 68.8 86.3
9/6/2004 7:55 74.53 69.1 83.2
9/6/2004 8:25 74.53 68.6 81.8
9/6/2004 8:55 75.22 68.08 78.5
9/6/2004 9:25 77.31 68.02 73.1
9/6/2004 9:55 78.01 68.12 71.7
9/6/2004 10:25 80.82 68.22 65.6
9/6/2004 10:55 82.95 68.12 61
9/6/2004 11:25 84.38 67.94 57.9
9/6/2004 11:55 85.1 67.28 55.3
9/6/2004 12:25 85.1 67.28 55.3
9/6/2004 12:55 87.28 66.98 51.1
9/6/2004 13:25 87.28 65.48 48.5
9/6/2004 13:55 88.74 66.22 47.5
9/6/2004 14:25 90.22 62.84 40.3
9/6/2004 14:55 92.46 64.1 39.3
9/6/2004 15:25 88.74 63.62 43.4
9/6/2004 15:55 90.96 64.2 41.3
9/6/2004 16:25 87.28 64.22 46.4
9/6/2004 16:55 83.67 68 59.4
9/6/2004 17:25 82.24 68.38 63
9/6/2004 17:55 80.12 68.64 68.1
9/6/2004 18:25 78.01 68.48 72.6
9/6/2004 18:55 76.62 68.14 75.1
9/6/2004 19:25 75.92 67.84 76.1
9/6/2004 19:55 75.22 67.36 76.6
9/6/2004 20:25 74.53 67.22 78
9/6/2004 20:55 73.84 66.92 79
9/6/2004 21:25 73.84 66.92 79
9/6/2004 21:55 73.15 66.76 80.4
9/6/2004 22:25 73.15 66.9 80.8
9/6/2004 22:55 73.15 66.76 80.4
9/6/2004 23:25 73.15 67.08 81.3
9/6/2004 23:55 72.46 66.4 81.3
9/7/2004 0:25 72.46 66.72 82.2
9/7/2004 0:55 72.46 66.4 81.3
9/7/2004 1:25 72.46 66.72 82.2
9/7/2004 1:55 71.77 66.04 82.2
9/7/2004 2:25 71.77 66.04 82.2
9/7/2004 2:55 71.08 66.04 84.1
9/7/2004 3:25 71.08 66.64 85.9
9/7/2004 3:55 70.39 65.8 85.4
9/7/2004 4:25 70.39 66.1 86.3
9/7/2004 4:55 69.71 65.3 85.9
9/7/2004 5:25 69.71 65.3 85.9
9/7/2004 5:55 69.02 64.76 86.3
9/7/2004 6:25 70.39 66.24 86.7
9/7/2004 6:55 72.46 66.72 82.2
9/7/2004 7:25 74.53 67.22 78
9/7/2004 7:55 78.01 66.64 68.1
9/7/2004 8:25 82.24 67.16 60.4
9/7/2004 8:55 83.67 65.1 53.7
9/7/2004 9:25 87.28 59.86 39.8
9/7/2004 9:55 91.71 48.2 22.6
9/7/2004 10:25 93.21 48.84 22.1
9/7/2004 10:55 92.46 46.6 20.8
9/7/2004 11:25 94.73 45.66 18.7
9/7/2004 11:55 95.49 42.52 16.2
9/7/2004 12:25 96.26 41.12 15
9/7/2004 12:55 98.6 41 13.9
9/7/2004 13:25 100.18 39.3 12.4
9/7/2004 13:55 98.6 39.48 13.1
9/7/2004 14:25 98.6 37.24 12
9/7/2004 14:55 97.82 61.94 30.9
9/7/2004 15:25 92.46 64.46 39.8
9/7/2004 15:55 90.96 64.88 42.3
9/7/2004 16:25 89.48 64.28 43.4
9/7/2004 16:55 88.74 64.6 44.9
9/7/2004 17:25 86.55 66.32 51.1
9/7/2004 17:55 84.38 66.6 55.3
9/7/2004 18:25 82.24 66.18 58.4
9/7/2004 18:55 80.82 65.82 60.4
9/7/2004 19:25 80.82 66.82 62.5
9/7/2004 19:55 80.12 66.6 63.5
9/7/2004 20:25 79.41 66.22 64.1
9/7/2004 20:55 78.71 67.3 68.1
9/7/2004 21:25 78.01 66.64 68.1
9/7/2004 21:55 77.31 66.8 70.1
9/7/2004 22:25 77.31 66.6 69.6
9/7/2004 22:55 77.31 66.18 68.6
9/7/2004 23:25 75.22 66.98 75.6
9/7/2004 23:55 73.84 67.56 80.8
9/8/2004 0:25 72.46 66.9 82.7
9/8/2004 0:55 72.46 67.08 83.2
9/8/2004 1:25 71.77 66.84 84.5
9/8/2004 1:55 71.77 67.58 86.7
9/8/2004 2:25 71.08 67.08 87.2
9/8/2004 2:55 70.39 66.66 88
9/8/2004 3:25 69.71 66.7 90.2
9/8/2004 3:55 69.02 66.16 90.6
9/8/2004 4:25 69.02 65.6 88.9
9/8/2004 4:55 68.33 65.6 91
9/8/2004 5:25 68.33 65.6 91
9/8/2004 5:55 68.33 65.36 90.2
9/8/2004 6:25 69.71 66.28 88.9
9/8/2004 6:55 75.92 68.74 78.5
9/8/2004 7:25 77.31 66.8 70.1
9/8/2004 7:55 80.12 63.16 56.3
9/8/2004 8:25 82.95 64.96 54.7
9/8/2004 8:55 84.38 60.98 45.4
9/8/2004 9:25 85.83 58.92 40.3
9/8/2004 9:55 88.01 57.94 36.3
9/8/2004 10:25 89.48 56.82 33.3
9/8/2004 10:55 91.71 55.4 29.5
9/8/2004 11:25 92.46 55.58 29
9/8/2004 11:55 92.46 56.04 29.5
9/8/2004 12:25 95.49 55.88 26.7
9/8/2004 12:55 95.49 57.68 28.5
9/8/2004 13:25 95.49 59.48 30.4
9/8/2004 13:55 94.73 60.62 32.4
9/8/2004 14:25 93.21 59.3 32.4
9/8/2004 14:55 92.46 59.84 33.8
9/8/2004 15:25 92.46 59.42 33.3
9/8/2004 15:55 90.96 59.74 35.3
9/8/2004 16:25 89.48 59.22 36.3
9/8/2004 16:55 88.01 59.44 38.3
9/8/2004 17:25 85.1 60.36 43.4
9/8/2004 17:55 83.67 60.32 45.4
9/8/2004 18:25 82.95 61.24 48
9/8/2004 18:55 81.53 59.66 47.5
9/8/2004 19:25 81.53 58.7 45.9
9/8/2004 19:55 80.82 58.72 47
9/8/2004 20:25 80.12 58.94 48.5
9/8/2004 20:55 80.12 59.24 49
9/8/2004 21:25 79.41 59.5 50.6
9/8/2004 21:55 79.41 59.5 50.6
9/8/2004 22:25 78.71 59.12 51.1
9/8/2004 22:55 78.01 59.34 52.7
9/8/2004 23:25 78.01 53.64 42.9
9/8/2004 23:55 78.01 52.62 41.3
9/9/2004 0:25 76.62 51.68 41.8
9/9/2004 0:55 76.62 51.36 41.3
9/9/2004 1:25 75.92 51.76 42.9
9/9/2004 1:55 75.22 52.98 45.9
9/9/2004 2:25 75.22 56.46 52.1
9/9/2004 2:55 75.22 57.02 53.2
9/9/2004 3:25 75.22 57.02 53.2
9/9/2004 3:55 75.22 57.02 53.2
9/9/2004 4:25 74.53 55.82 52.1
9/9/2004 4:55 73.84 55.18 52.1
9/9/2004 5:25 73.84 55.74 53.2
9/9/2004 5:55 73.84 55.74 53.2
9/9/2004 6:25 75.22 56.18 51.6
9/9/2004 6:55 82.95 56.36 40.3
9/9/2004 7:25 85.83 55.64 35.8
9/9/2004 7:55 86.55 53.94 32.9
9/9/2004 8:25 88.74 55 31.9
9/9/2004 8:55 89.48 58.06 34.8
9/9/2004 9:25 91.71 58 32.4
9/9/2004 9:55 93.21 56.7 29.5
9/9/2004 10:25 94.73 55.64 27.1
9/9/2004 10:55 95.49 54.84 25.7
9/9/2004 11:25 96.26 55.48 25.7
9/9/2004 11:55 97.82 55.8 24.8
9/9/2004 12:25 97.82 55.8 24.8
9/9/2004 12:55 101.79 55.42 21.7
9/9/2004 13:25 100.18 55.22 22.6
9/9/2004 13:55 99.39 55.04 23
9/9/2004 14:25 98.6 55.44 23.9
9/9/2004 14:55 97.04 54.7 24.4
9/9/2004 15:25 95.49 54.84 25.7
9/9/2004 15:55 94.73 54.18 25.7
9/9/2004 16:25 93.21 53.96 26.7
9/9/2004 16:55 91.71 54.46 28.5
9/9/2004 17:25 90.22 52.32 27.6
9/9/2004 17:55 88.74 54.58 31.4
9/9/2004 18:25 87.28 53.74 31.9
9/9/2004 18:55 86.55 53.1 31.9
9/9/2004 19:25 85.83 52.9 32.4
9/9/2004 19:55 85.1 52.28 32.4
9/9/2004 20:25 84.38 52.06 32.9
9/9/2004 20:55 83.67 50.18 31.4
9/9/2004 21:25 83.67 47.6 28.5
9/9/2004 21:55 82.95 48.34 30
9/9/2004 22:25 82.24 48.96 31.4
9/9/2004 22:55 81.53 49.18 32.4
9/9/2004 23:25 80.82 49.3 33.3
9/9/2004 23:55 80.12 49.46 34.3
9/10/2004 0:25 79.41 49.62 35.3
9/10/2004 0:55 78.71 49.76 36.3
9/10/2004 1:25 78.01 49.14 36.3
9/10/2004 1:55 77.31 49.24 37.3
9/10/2004 2:25 77.31 49.6 37.8
9/10/2004 2:55 77.31 50.64 39.3
9/10/2004 3:25 76.62 50.02 39.3
9/10/2004 3:55 75.92 50.08 40.3
9/10/2004 4:25 75.22 50.12 41.3
9/10/2004 4:55 75.22 50.76 42.3
9/10/2004 5:25 74.53 50.14 42.3
9/10/2004 5:55 74.53 50.14 42.3
9/10/2004 6:25 75.92 51.06 41.8
9/10/2004 6:55 84.38 53.6 34.8
9/10/2004 7:25 88.01 52.24 29.5
9/10/2004 7:55 88.74 53.32 30
9/10/2004 8:25 90.96 54.3 29
9/10/2004 8:55 91.71 57.14 31.4
9/10/2004 9:25 93.97 56.38 28.5
9/10/2004 9:55 94.73 56.14 27.6
9/10/2004 10:25 96.26 55.48 25.7
9/10/2004 10:55 93.97 56 28.1
9/10/2004 11:25 98.6 55.44 23.9
9/10/2004 11:55 94.73 56.14 27.6
9/10/2004 12:25 96.26 55.04 25.3
9/10/2004 12:55 99.39 55.62 23.5
9/10/2004 13:25 99.39 56.1 23.9
9/10/2004 13:55 98.6 56 24.4
9/10/2004 14:25 97.82 55.36 24.4
9/10/2004 14:55 97.04 53.68 23.5
9/10/2004 15:25 96.26 54.06 24.4
9/10/2004 15:55 95.49 54.84 25.7
9/10/2004 16:25 93.97 54.08 26.2
9/10/2004 16:55 93.21 53.96 26.7
9/10/2004 17:25 90.96 54.3 29
9/10/2004 17:55 89.48 56.06 32.4
9/10/2004 18:25 88.74 56.6 33.8
9/10/2004 18:55 87.28 54.92 33.3
9/10/2004 19:25 86.55 54.68 33.8
9/10/2004 19:55 85.83 54.86 34.8
9/10/2004 20:25 84.38 54.74 36.3
9/10/2004 20:55 83.67 54.5 36.8
9/10/2004 21:25 82.95 54.24 37.3
9/10/2004 21:55 82.24 54.32 38.3
9/10/2004 22:25 81.53 54.74 39.8
9/10/2004 22:55 81.53 54.74 39.8
9/10/2004 23:25 80.12 53.82 40.3
9/10/2004 23:55 79.41 53.88 41.3
9/11/2004 0:25 78.71 53.56 41.8
9/11/2004 0:55 78.01 53.26 42.3
9/11/2004 1:25 78.01 53.64 42.9
9/11/2004 1:55 77.31 53.96 44.4
9/11/2004 2:25 76.62 53.32 44.4
9/11/2004 2:55 76.62 53.64 44.9
9/11/2004 3:25 75.92 53.6 45.9
9/11/2004 3:55 75.22 53.62 47
9/11/2004 4:25 75.22 53.26 46.4
9/11/2004 4:55 74.53 52.98 47
9/11/2004 5:25 74.53 53.28 47.5
9/11/2004 5:55 74.53 53.28 47.5
9/11/2004 6:25 75.92 53.9 46.4
9/11/2004 6:55 84.38 55.5 37.3
9/11/2004 7:25 87.28 53.74 31.9
9/11/2004 7:55 88.01 52.7 30
9/11/2004 8:25 89.48 53.5 29.5
9/11/2004 8:55 90.96 52.94 27.6
9/11/2004 9:25 91.71 51.22 25.3
9/11/2004 9:55 94.73 53.22 24.8
9/11/2004 10:25 96.26 51.96 22.6
9/11/2004 10:55 97.82 50.48 20.4
9/11/2004 11:25 97.82 49.94 20
9/11/2004 11:55 99.39 49.42 18.7
9/11/2004 12:25 100.18 46.24 16.2
9/11/2004 12:55 103.41 50.1 17
9/11/2004 13:25 100.98 50.7 18.7
9/11/2004 13:55 100.18 51.88 20
9/11/2004 14:25 99.39 50.54 19.5
9/11/2004 14:55 98.6 48.2 18.3
9/11/2004 15:25 97.82 50.48 20.4
9/11/2004 15:55 96.26 49.74 20.8
9/11/2004 16:25 96.26 49.74 20.8
9/11/2004 16:55 94.73 51.18 23
9/11/2004 17:25 93.21 51.94 24.8
9/11/2004 17:55 90.96 52.46 27.1
9/11/2004 18:25 89.48 52.18 28.1
9/11/2004 18:55 88.74 52.86 29.5
9/11/2004 19:25 87.28 51.62 29.5
9/11/2004 19:55 86.55 53.1 31.9
9/11/2004 20:25 85.83 51.62 30.9
9/11/2004 20:55 84.38 52.4 33.3
9/11/2004 21:25 83.67 52.58 34.3
9/11/2004 21:55 82.95 51.94 34.3
9/11/2004 22:25 82.24 52.48 35.8
9/11/2004 22:55 81.53 52.24 36.3
9/11/2004 23:25 80.82 52.72 37.8
9/11/2004 23:55 80.82 53.42 38.8
9/12/2004 0:25 80.12 51.72 37.3
9/12/2004 0:55 79.41 52.18 38.8
9/12/2004 1:25 78.71 52.58 40.3
9/12/2004 1:55 78.01 53.64 42.9
9/12/2004 2:25 77.31 52.64 42.3
9/12/2004 2:55 76.62 52.02 42.3
9/12/2004 3:25 75.92 51.38 42.3
9/12/2004 3:55 75.22 51.76 43.9
9/12/2004 4:25 75.22 52.38 44.9
9/12/2004 4:55 74.53 52.34 45.9
9/12/2004 5:25 73.84 52.64 47.5
9/12/2004 5:55 73.84 52.64 47.5
9/12/2004 6:25 74.53 52.98 47
9/12/2004 6:55 82.95 55.32 38.8
9/12/2004 7:25 85.1 54.62 35.3
9/12/2004 7:55 85.1 52.7 32.9
9/12/2004 8:25 87.28 51.62 29.5
9/12/2004 8:55 89.48 51.68 27.6
9/12/2004 9:25 90.96 48.62 23.5
9/12/2004 9:55 92.46 48.82 22.6
9/12/2004 10:25 94.73 48.48 20.8
9/12/2004 10:55 96.26 46.32 18.3
9/12/2004 11:25 97.82 46.4 17.5
9/12/2004 11:55 97.82 46.4 17.5
9/12/2004 12:25 98.6 46.26 17
9/12/2004 12:55 100.18 46.24 16.2
9/12/2004 13:25 100.18 47.52 17
9/12/2004 13:55 99.39 47.66 17.5
9/12/2004 14:25 99.39 48.84 18.3
9/12/2004 14:55 98.6 48.78 18.7
9/12/2004 15:25 97.04 49.32 20
9/12/2004 15:55 97.82 49.26 19.5
9/12/2004 16:25 96.26 49.74 20.8
9/12/2004 16:55 93.21 49.44 22.6
9/12/2004 17:25 91.71 48.66 23
9/12/2004 17:55 90.22 49 24.4
9/12/2004 18:25 88.01 49.54 26.7
9/12/2004 18:55 86.55 50.06 28.5
9/12/2004 19:25 85.1 50.2 30
9/12/2004 19:55 83.67 51.44 32.9
9/12/2004 20:25 82.24 51.72 34.8
9/12/2004 20:55 80.82 53.78 39.3
9/12/2004 21:25 80.12 53.48 39.8
9/12/2004 21:55 78.71 52.58 40.3
9/12/2004 22:25 78.01 52.62 41.3
9/12/2004 22:55 76.62 53.02 43.9
9/12/2004 23:25 75.92 52.7 44.4
9/12/2004 23:55 75.22 52.38 44.9
9/13/2004 0:25 73.84 52.02 46.4
9/13/2004 0:55 73.84 52.36 47
9/13/2004 1:25 72.46 51.38 47.5
9/13/2004 1:55 72.46 51.96 48.5
9/13/2004 2:25 72.46 52.5 49.5
9/13/2004 2:55 71.08 51.56 50.1
9/13/2004 3:25 70.39 51.74 51.6
9/13/2004 3:55 69.02 51.54 53.7
9/13/2004 4:25 68.33 50.9 53.7
9/13/2004 4:55 68.33 50.4 52.7
9/13/2004 5:25 67.65 50.02 53.2
9/13/2004 5:55 67.65 50.78 54.7
9/13/2004 6:25 68.33 52.18 56.3
9/13/2004 6:55 77.31 53.96 44.4
9/13/2004 7:25 76.62 49.68 38.8
9/13/2004 7:55 76.62 48.26 36.8
9/13/2004 8:25 78.01 48 34.8
9/13/2004 8:55 79.41 47.74 32.9
9/13/2004 9:25 80.82 47.72 31.4
9/13/2004 9:55 83.67 47.22 28.1
9/13/2004 10:25 85.1 45.14 24.8
9/13/2004 10:55 87.28 41.84 20.4
9/13/2004 11:25 88.01 45.58 23
9/13/2004 11:55 90.22 43.74 20
9/13/2004 12:25 90.96 40.14 17
9/13/2004 12:55 92.46 42.08 17.5
9/13/2004 13:25 92.46 42.68 17.9
9/13/2004 13:55 92.46 44.9 19.5
9/13/2004 14:25 91.71 43.76 19.1
9/13/2004 14:55 91.71 39.5 16.2
9/13/2004 15:25 90.22 46.96 22.6
9/13/2004 15:55 88.74 48.72 25.3
9/13/2004 16:25 86.55 49.2 27.6
9/13/2004 16:55 84.38 51.66 32.4
9/13/2004 17:25 81.53 53.7 38.3
9/13/2004 17:55 78.01 53.96 43.4
9/13/2004 18:25 75.92 53.9 46.4
9/13/2004 18:55 74.53 54.4 49.5
9/13/2004 19:25 73.15 54.86 52.7
9/13/2004 19:55 71.77 55.38 56.3
9/13/2004 20:25 71.77 56.16 57.9
9/13/2004 20:55 70.39 54.88 57.9
9/13/2004 21:25 69.71 52.68 54.7
9/13/2004 21:55 69.02 52.82 56.3
9/13/2004 22:25 67.65 52.54 58.4
9/13/2004 22:55 66.96 55.08 65.6
9/13/2004 23:25 66.28 55.24 67.6
9/13/2004 23:55 65.59 55 68.6
9/14/2004 0:25 64.91 56.84 75.1
9/14/2004 0:55 64.22 56.86 77
9/14/2004 1:25 63.54 57.06 79.4
9/14/2004 1:55 62.85 57.52 82.7
9/14/2004 2:25 62.17 57.14 83.6
9/14/2004 2:55 62.17 57.9 85.9
9/14/2004 3:25 61.48 57.64 87.2
9/14/2004 3:55 61.48 57.48 86.7
9/14/2004 4:25 60.8 57.62 89.3
9/14/2004 4:55 60.8 58.52 92.2
9/14/2004 5:25 60.11 58.2 93.4
9/14/2004 5:55 59.42 57.64 93.8
9/14/2004 6:25 60.11 57.24 90.2
9/14/2004 6:55 61.48 57.48 86.7
9/14/2004 7:25 62.17 57.44 84.5
9/14/2004 7:55 64.91 56.66 74.6
9/14/2004 8:25 66.96 57.34 71.2
9/14/2004 8:55 69.02 56.38 64.1
9/14/2004 9:25 71.77 55.14 55.8
9/14/2004 9:55 73.84 53.78 49.5
9/14/2004 10:25 76.62 53.64 44.9
9/14/2004 10:55 78.71 51.54 38.8
9/14/2004 11:25 80.82 50.48 34.8
9/14/2004 11:55 82.95 49.56 31.4
9/14/2004 12:25 85.1 47.96 27.6
9/14/2004 12:55 87.28 46.96 24.8
9/14/2004 13:25 87.28 47.5 25.3
9/14/2004 13:55 87.28 49.82 27.6
9/14/2004 14:25 85.83 52.9 32.4
9/14/2004 14:55 85.1 53.42 33.8
9/14/2004 15:25 84.38 52.8 33.8
9/14/2004 15:55 82.24 53.24 36.8
9/14/2004 16:25 80.12 54.16 40.8
9/14/2004 16:55 78.01 53.96 43.4
9/14/2004 17:25 75.92 56.28 50.6
9/14/2004 17:55 72.46 56.8 57.9
9/14/2004 18:25 70.39 57.42 63.5
9/14/2004 18:55 69.02 58.06 68.1
9/14/2004 19:25 67.65 57.56 70.1
9/14/2004 19:55 66.96 58.44 74.1
9/14/2004 20:25 65.59 57.5 75.1
9/14/2004 20:55 64.91 57.02 75.6
9/14/2004 21:25 64.22 57.04 77.5
9/14/2004 21:55 64.22 57.72 79.4
9/14/2004 22:25 63.54 57.06 79.4
9/14/2004 22:55 62.85 57.34 82.2
9/14/2004 23:25 61.48 56.94 85
9/14/2004 23:55 61.48 57.22 85.9
9/15/2004 0:25 60.8 56.56 85.9
9/15/2004 0:55 60.8 57.1 87.6
9/15/2004 1:25 60.11 56.42 87.6
9/15/2004 1:55 60.11 56.7 88.5
9/15/2004 2:25 60.8 57.62 89.3
9/15/2004 2:55 60.11 57.08 89.7
9/15/2004 3:25 60.11 57.08 89.7
9/15/2004 3:55 60.11 57.24 90.2
9/15/2004 4:25 60.11 57.08 89.7
9/15/2004 4:55 60.11 57.08 89.7
9/15/2004 5:25 59.42 56.4 89.7
9/15/2004 5:55 59.42 55.74 87.6
9/15/2004 6:25 59.42 55.34 86.3
9/15/2004 6:55 60.8 55.5 82.7
9/15/2004 7:25 63.54 55.88 76.1
9/15/2004 7:55 64.91 55.72 72.1
9/15/2004 8:25 65.59 56.02 71.2
9/15/2004 8:55 67.65 55.52 65.1
9/15/2004 9:25 69.71 54.24 57.9
9/15/2004 9:55 72.46 52.5 49.5
9/15/2004 10:25 74.53 52.34 45.9
9/15/2004 10:55 77.31 53.64 43.9
9/15/2004 11:25 79.41 51.46 37.8
9/15/2004 11:55 81.53 49.58 32.9
9/15/2004 12:25 84.38 47.84 28.1
9/15/2004 12:55 85.83 47.2 26.2
9/15/2004 13:25 86.55 48.7 27.1
9/15/2004 13:55 88.01 48.52 25.7
9/15/2004 14:25 88.01 49.04 26.2
9/15/2004 14:55 85.83 50.36 29.5
9/15/2004 15:25 85.1 50.2 30
9/15/2004 15:55 83.67 50.18 31.4
9/15/2004 16:25 82.24 50.92 33.8
9/15/2004 16:55 79.41 53.2 40.3
9/15/2004 17:25 77.31 53.64 43.9
9/15/2004 17:55 74.53 53.84 48.5
9/15/2004 18:25 73.15 54.86 52.7
9/15/2004 18:55 71.77 54.9 55.3
9/15/2004 19:25 70.39 54.88 57.9
9/15/2004 19:55 69.71 55.16 59.9
9/15/2004 20:25 69.02 55.24 61.5
9/15/2004 20:55 68.33 54.82 62
9/15/2004 21:25 67.65 54.4 62.5
9/15/2004 21:55 66.96 55.9 67.6
9/15/2004 22:25 66.28 55.86 69.1
9/15/2004 22:55 65.59 56.02 71.2
9/15/2004 23:25 64.22 55.06 72.1
9/15/2004 23:55 63.54 55.7 75.6
9/16/2004 0:25 63.54 55.7 75.6
9/16/2004 0:55 62.85 55.22 76.1
9/16/2004 1:25 61.48 54.08 76.6
9/16/2004 1:55 61.48 54.08 76.6
9/16/2004 2:25 60.11 52.2 75.1
9/16/2004 2:55 60.11 53.06 77.5
9/16/2004 3:25 59.42 52.92 79
9/16/2004 3:55 58.73 51.72 77.5
9/16/2004 4:25 58.04 51.06 77.5
9/16/2004 4:55 58.04 52.06 80.4
9/16/2004 5:25 58.04 51.88 79.9
9/16/2004 5:55 57.35 51.38 80.4
9/16/2004 6:25 58.04 52.66 82.2
9/16/2004 6:55 67.65 56.34 67.1
9/16/2004 7:25 70.39 53.86 55.8
9/16/2004 7:55 72.46 46.98 40.3
9/16/2004 8:25 75.22 46.68 36.3
9/16/2004 8:55 78.01 43.66 29.5
9/16/2004 9:25 80.82 38.58 22.1
9/16/2004 9:55 82.95 36.62 19.1
9/16/2004 10:25 85.1 38.9 19.5
9/16/2004 10:55 87.28 30.68 13.1
9/16/2004 11:25 89.48 28.76 11.3
9/16/2004 11:55 90.96 32.78 12.7
9/16/2004 12:25 91.71 34.88 13.5
9/16/2004 12:55 93.97 27.94 9.5
9/16/2004 13:25 94.73 25.82 8.5
9/16/2004 13:55 95.49 32.46 10.9
9/16/2004 14:25 94.73 34.26 12
9/16/2004 14:55 95.49 31.54 10.5
9/16/2004 15:25 93.97 33.68 12
9/16/2004 15:55 92.46 36.2 13.9
9/16/2004 16:25 90.22 40.86 17.9
9/16/2004 16:55 87.28 43.46 21.7
9/16/2004 17:25 84.38 43.56 23.9
9/16/2004 17:55 81.53 44.92 27.6
9/16/2004 18:25 79.41 43.96 28.5
9/16/2004 18:55 77.31 45.1 31.9
9/16/2004 19:25 75.92 45.4 33.8
9/16/2004 19:55 75.22 44.8 33.8
9/16/2004 20:25 74.53 44.96 34.8
9/16/2004 20:55 73.15 44.12 35.3
9/16/2004 21:25 71.77 42.52 34.8
9/16/2004 21:55 71.08 42.66 35.8
9/16/2004 22:25 69.71 41.44 35.8
9/16/2004 22:55 69.02 41.2 36.3
9/16/2004 23:25 69.02 41.56 36.8
9/16/2004 23:55 67.65 41.02 37.8
9/17/2004 0:25 66.96 41.1 38.8
9/17/2004 0:55 66.28 41.14 39.8
9/17/2004 1:25 66.28 38.78 36.3
9/17/2004 1:55 65.59 38.16 36.3
9/17/2004 2:25 65.59 36.74 34.3
9/17/2004 2:55 66.28 32.34 28.1
9/17/2004 3:25 64.91 31.5 28.5
9/17/2004 3:55 64.22 30.14 27.6
9/17/2004 4:25 63.54 29.54 27.6
9/17/2004 4:55 65.59 29.18 25.3
9/17/2004 5:25 66.28 27.44 23
9/17/2004 5:55 65.59 27.78 23.9
9/17/2004 6:25 66.28 27.96 23.5
9/17/2004 6:55 75.22 28.18 17.5
9/17/2004 7:25 78.71 24.7 13.5
9/17/2004 7:55 81.53 22.66 11.3
9/17/2004 8:25 83.67 24.3 11.3
9/17/2004 8:55 85.83 22.56 9.8
9/17/2004 9:25 88.74 24.76 9.8
9/17/2004 9:55 89.48 25.32 9.8
9/17/2004 10:25 90.96 23.86 8.8
9/17/2004 10:55 93.21 31.62 11.3
9/17/2004 11:25 93.97 32.84 11.6
9/17/2004 11:55 94.73 30.96 10.5
9/17/2004 12:25 95.49 32.46 10.9
9/17/2004 12:55 95.49 38.58 13.9
9/17/2004 13:25 96.26 40.44 14.6
9/17/2004 13:55 96.26 41.12 15
9/17/2004 14:25 96.26 41.12 15
9/17/2004 14:55 95.49 41.2 15.4
9/17/2004 15:25 94.73 38.7 14.3
9/17/2004 15:55 93.97 37.38 13.9
9/17/2004 16:25 93.21 35.3 13.1
9/17/2004 16:55 90.96 33.54 13.1
9/17/2004 17:25 88.74 29.66 12
9/17/2004 17:55 86.55 33.46 15
9/17/2004 18:25 84.38 32.4 15.4
9/17/2004 18:55 82.95 32.5 16.2
9/17/2004 19:25 81.53 33.28 17.5
9/17/2004 19:55 80.12 33.78 18.7
9/17/2004 20:25 78.71 33.16 19.1
9/17/2004 20:55 78.01 32.6 19.1
9/17/2004 21:25 77.31 32.54 19.5
9/17/2004 21:55 75.92 32.02 20
9/17/2004 22:25 75.22 31.44 20
9/17/2004 22:55 74.53 31.36 20.4
9/17/2004 23:25 73.84 30.8 20.4
9/17/2004 23:55 73.84 30.3 20
9/18/2004 0:25 73.15 29.74 20
9/18/2004 0:55 72.46 29.66 20.4
9/18/2004 1:25 71.77 29.56 20.8
9/18/2004 1:55 71.08 29.58 21.3
9/18/2004 2:25 71.08 29.58 21.3
9/18/2004 2:55 71.08 29.58 21.3
9/18/2004 3:25 70.39 29.9 22.1
9/18/2004 3:55 70.39 29.9 22.1
9/18/2004 4:25 69.71 29.32 22.1
9/18/2004 4:55 70.39 29.9 22.1
9/18/2004 5:25 69.71 29.32 22.1
9/18/2004 5:55 69.71 29.88 22.6
9/18/2004 6:25 70.39 29.46 21.7
9/18/2004 6:55 78.71 31 17.5
9/18/2004 7:25 82.24 30.68 15.4
9/18/2004 7:55 83.67 30 14.3
9/18/2004 8:25 84.38 31.08 14.6
9/18/2004 8:55 85.83 35.42 16.6
9/18/2004 9:25 88.01 44.06 21.7
9/18/2004 9:55 88.74 49.14 25.7
9/18/2004 10:25 90.22 49.44 24.8
9/18/2004 10:55 90.96 49.62 24.4
9/18/2004 11:25 92.46 50.88 24.4
9/18/2004 11:55 92.46 50.88 24.4
9/18/2004 12:25 93.97 50.54 23
9/18/2004 12:55 93.21 51.5 24.4
9/18/2004 13:25 93.21 51.5 24.4
9/18/2004 13:55 92.46 50.88 24.4
9/18/2004 14:25 92.46 50.88 24.4
9/18/2004 14:55 91.71 50.68 24.8
9/18/2004 15:25 91.71 49.24 23.5
9/18/2004 15:55 90.22 50.38 25.7
9/18/2004 16:25 89.48 51.68 27.6
9/18/2004 16:55 87.28 52.42 30.4
9/18/2004 17:25 85.1 49.74 29.5
9/18/2004 17:55 83.67 46.74 27.6
9/18/2004 18:25 82.24 47.28 29.5
9/18/2004 18:55 80.82 48.96 32.9
9/18/2004 19:25 79.41 50 35.8
9/18/2004 19:55 78.71 47.84 33.8
9/18/2004 20:25 78.71 48.62 34.8
9/18/2004 20:55 78.01 48.38 35.3
9/18/2004 21:25 77.31 47.78 35.3
9/18/2004 21:55 77.31 47.4 34.8
9/18/2004 22:25 76.62 46.78 34.8
9/18/2004 22:55 75.92 47.66 36.8
9/18/2004 23:25 75.22 47.76 37.8
9/18/2004 23:55 75.22 48.44 38.8
9/19/2004 0:25 74.53 48.18 39.3
9/19/2004 0:55 74.53 48.84 40.3
9/19/2004 1:25 73.84 48.88 41.3
9/19/2004 1:55 73.15 48.26 41.3
9/19/2004 2:25 72.46 47.96 41.8
9/19/2004 2:55 72.46 48.66 42.9
9/19/2004 3:25 71.77 48.64 43.9
9/19/2004 3:55 71.08 48.32 44.4
9/19/2004 4:25 71.08 48.02 43.9
9/19/2004 4:55 70.39 47.7 44.4
9/19/2004 5:25 70.39 48.3 45.4
9/19/2004 5:55 70.39 49.78 48
9/19/2004 6:25 69.71 50.3 50.1
9/19/2004 6:55 75.92 50.42 40.8
9/19/2004 7:25 76.62 46.4 34.3
9/19/2004 7:55 76.62 42 29
9/19/2004 8:25 78.01 37.8 23.5
9/19/2004 8:55 78.71 45.04 30.4
9/19/2004 9:25 79.41 39.94 24.4
9/19/2004 9:55 80.12 40 23.9
9/19/2004 10:25 80.82 42.96 26.2
9/19/2004 10:55 81.53 37.62 20.8
9/19/2004 11:25 82.95 40.34 22.1
9/19/2004 11:55 83.67 40 21.3
9/19/2004 12:25 84.38 39.48 20.4
9/19/2004 12:55 85.83 32.22 14.6
9/19/2004 13:25 86.55 32.78 14.6
9/19/2004 13:55 85.1 30.44 13.9
9/19/2004 14:25 85.1 34.84 16.6
9/19/2004 14:55 83.67 33.08 16.2
9/19/2004 15:25 82.95 36.1 18.7
9/19/2004 15:55 81.53 40.18 23
9/19/2004 16:25 79.41 42.64 27.1
9/19/2004 16:55 77.31 42.6 29
9/19/2004 17:25 74.53 41.1 30
9/19/2004 17:55 72.46 41.98 33.3
9/19/2004 18:25 70.39 41.68 35.3
9/19/2004 18:55 69.02 48.8 48.5
9/19/2004 19:25 65.59 54.18 66.6
9/19/2004 19:55 63.54 54.06 71.2
9/19/2004 20:25 62.17 54 74.6
9/19/2004 20:55 61.48 54.4 77.5
9/19/2004 21:25 60.11 53.58 79
9/19/2004 21:55 59.42 52.92 79
9/19/2004 22:25 58.73 52.38 79.4
9/19/2004 22:55 58.73 51.4 76.6
9/19/2004 23:25 58.04 45.12 62
9/19/2004 23:55 58.04 44 59.4
9/20/2004 0:25 56.66 44.44 63.5
9/20/2004 0:55 57.35 38.12 48.5
9/20/2004 1:25 57.35 37.6 47.5
9/20/2004 1:55 55.97 42.26 59.9
9/20/2004 2:25 54.58 43.52 66.1
9/20/2004 2:55 54.58 45.04 70.1
9/20/2004 3:25 54.58 46.52 74.1
9/20/2004 3:55 53.89 46.02 74.6
9/20/2004 4:25 53.19 45.16 74.1
9/20/2004 4:55 53.19 44.98 73.6
9/20/2004 5:25 52.49 44.84 75.1
9/20/2004 5:55 52.49 45.02 75.6
9/20/2004 6:25 53.19 45.16 74.1
9/20/2004 6:55 60.8 48.14 63
9/20/2004 7:25 62.85 44.02 50.1
9/20/2004 7:55 62.85 40.28 43.4
9/20/2004 8:25 64.22 40.56 41.8
9/20/2004 8:55 66.28 39.82 37.8
9/20/2004 9:25 69.02 35.9 29.5
9/20/2004 9:55 70.39 37.1 29.5
9/20/2004 10:25 73.15 35.96 25.7
9/20/2004 10:55 74.53 35.82 24.4
9/20/2004 11:25 76.62 33.08 20.4
9/20/2004 11:55 78.71 33.16 19.1
9/20/2004 12:25 79.41 34.26 19.5
9/20/2004 12:55 80.12 33.24 18.3
9/20/2004 13:25 81.53 34.94 18.7
9/20/2004 13:55 81.53 36.62 20
9/20/2004 14:25 81.53 39.16 22.1
9/20/2004 14:55 80.82 39.14 22.6
9/20/2004 15:25 80.82 41.12 24.4
9/20/2004 15:55 80.82 41.54 24.8
9/20/2004 16:25 78.71 42.52 27.6
9/20/2004 16:55 76.62 45.62 33.3
9/20/2004 17:25 75.22 45.18 34.3
9/20/2004 17:55 73.15 45.56 37.3
9/20/2004 18:25 71.08 46.4 41.3
9/20/2004 18:55 69.02 47.62 46.4
9/20/2004 19:25 67.65 48.68 50.6
9/20/2004 19:55 65.59 49.64 56.3
9/20/2004 20:25 64.91 49.74 57.9
9/20/2004 20:55 64.22 49.1 57.9
9/20/2004 21:25 63.54 48.46 57.9
9/20/2004 21:55 63.54 48.18 57.3
9/20/2004 22:25 62.85 49.22 61
9/20/2004 22:55 61.48 49.66 65.1
9/20/2004 23:25 61.48 48.58 62.5
9/20/2004 23:55 60.8 48.34 63.5
9/21/2004 0:25 60.11 48.16 64.6
9/21/2004 0:55 58.73 47.06 65.1
9/21/2004 1:25 58.73 46.18 63
9/21/2004 1:55 58.73 45.76 62
9/21/2004 2:25 57.35 45.54 64.6
9/21/2004 2:55 57.35 46.14 66.1
9/21/2004 3:25 56.66 45.08 65.1
9/21/2004 3:55 64.22 50.24 60.4
9/21/2004 4:25 66.28 53.8 64.1
9/21/2004 4:55 66.28 52.44 61
9/21/2004 5:25 67.65 53 59.4
9/21/2004 5:55 67.65 53.46 60.4
9/21/2004 6:25 68.33 50.4 52.7
9/21/2004 6:55 71.08 49.22 45.9
9/21/2004 7:25 71.08 48.02 43.9
9/21/2004 7:55 71.77 45.04 38.3
9/21/2004 8:25 72.46 42.76 34.3
9/21/2004 8:55 73.84 39.18 28.5
9/21/2004 9:25 75.22 38.22 26.2
9/21/2004 9:55 75.92 39.28 26.7
9/21/2004 10:25 76.62 38 24.8
9/21/2004 10:55 76.62 35.64 22.6
9/21/2004 11:25 78.01 33.74 20
9/21/2004 11:55 78.71 32.64 18.7
9/21/2004 12:25 78.71 32.64 18.7
9/21/2004 12:55 79.41 25.96 13.9
9/21/2004 13:25 78.71 26.08 14.3
9/21/2004 13:55 78.71 26.58 14.6
9/21/2004 14:25 79.41 25.26 13.5
9/21/2004 14:55 78.71 25.4 13.9
9/21/2004 15:25 78.01 28.54 16.2
9/21/2004 15:55 78.01 24.86 13.9
9/21/2004 16:25 76.62 24.42 14.3
9/21/2004 16:55 75.92 24.38 14.6
9/21/2004 17:25 74.53 25.16 15.8
9/21/2004 17:55 73.84 25.2 16.2
9/21/2004 18:25 73.15 27.04 17.9
9/21/2004 18:55 72.46 25.24 17
9/21/2004 19:25 72.46 25.94 17.5
9/21/2004 19:55 72.46 26.48 17.9
9/21/2004 20:25 73.15 29.12 19.5
9/21/2004 20:55 72.46 30.72 21.3
9/21/2004 21:25 72.46 30.72 21.3
9/21/2004 21:55 72.46 29.66 20.4
9/21/2004 22:25 72.46 28.04 19.1
9/21/2004 22:55 72.46 22.88 15.4
9/21/2004 23:25 71.77 19.24 13.5
9/21/2004 23:55 71.77 21.08 14.6
9/22/2004 0:25 71.08 21.16 15
9/22/2004 0:55 71.08 19.38 13.9
9/22/2004 1:25 71.08 18.7 13.5
9/22/2004 1:55 71.77 17.28 12.4
9/22/2004 2:25 71.08 15.98 12
9/22/2004 2:55 71.08 14.62 11.3
9/22/2004 3:25 71.77 13.48 10.5
9/22/2004 3:55 71.77 12.82 10.2
9/22/2004 4:25 71.08 12.96 10.5
9/22/2004 4:55 69.02 13.62 11.6
9/22/2004 5:25 66.96 12.02 11.6
9/22/2004 5:55 67.65 10.32 10.5
9/22/2004 6:25 69.71 11.24 10.2
9/22/2004 6:55 73.84 14.4 10.2
9/22/2004 7:25 73.84 13.5 9.8
9/22/2004 7:55 74.53 12.34 9.1
9/22/2004 8:25 75.92 13.38 9.1
9/22/2004 8:55 76.62 13.92 9.1
9/22/2004 9:25 78.01 14.96 9.1
9/22/2004 9:55 79.41 15.24 8.8
9/22/2004 10:25 80.82 12.66 7.5
9/22/2004 10:55 80.82 15.5 8.5
9/22/2004 11:25 81.53 20.26 10.2
9/22/2004 11:55 82.24 23.22 11.3
9/22/2004 12:25 82.95 25.98 12.4
9/22/2004 12:55 82.24 23.84 11.6
9/22/2004 13:25 82.95 26.56 12.7
9/22/2004 13:55 82.24 29.38 14.6
9/22/2004 14:25 82.24 29.38 14.6
9/22/2004 14:55 82.95 30.6 15
9/22/2004 15:25 81.53 30.12 15.4
9/22/2004 15:55 80.82 31.98 17
9/22/2004 16:25 80.12 33.24 18.3
9/22/2004 16:55 78.71 27.24 15
9/22/2004 17:25 77.31 17.72 10.5
9/22/2004 17:55 76.62 24.42 14.3
9/22/2004 18:25 75.22 29.26 18.3
9/22/2004 18:55 74.53 25.16 15.8
9/22/2004 19:25 74.53 26.92 17
9/22/2004 19:55 74.53 30.26 19.5
9/22/2004 20:25 73.84 32.78 22.1
9/22/2004 20:55 73.84 31.28 20.8
9/22/2004 21:25 73.15 33.72 23.5
9/22/2004 21:55 69.02 34.68 28.1
9/22/2004 22:25 67.65 33.52 28.1
9/22/2004 22:55 66.96 33.7 29
9/22/2004 23:25 66.96 34.14 29.5
9/22/2004 23:55 64.22 32.18 30
9/23/2004 0:25 62.85 27.22 25.7
9/23/2004 0:55 61.48 26.06 25.7
9/23/2004 1:25 60.8 24.62 24.8
9/23/2004 1:55 60.11 25.8 26.7
9/23/2004 2:25 60.11 25.8 26.7
9/23/2004 2:55 59.42 25.58 27.1
9/23/2004 3:25 58.73 23.72 25.7
9/23/2004 3:55 58.04 24.04 26.7
9/23/2004 4:25 58.04 21.02 23.5
9/23/2004 4:55 57.35 19.94 23
9/23/2004 5:25 56.66 19.36 23
9/23/2004 5:55 56.66 19.36 23
9/23/2004 6:25 58.04 20.1 22.6
9/23/2004 6:55 66.28 20.24 17
9/23/2004 7:25 71.08 16.74 12.4
9/23/2004 7:55 75.92 15.08 9.8
9/23/2004 8:25 78.71 15.48 9.1
9/23/2004 8:55 80.12 13.88 8.1
9/23/2004 9:25 81.53 14.08 7.8
9/23/2004 9:55 82.95 11 6.5
9/23/2004 10:25 85.1 10.38 5.9
9/23/2004 10:55 84.38 14.34 7.2
9/23/2004 11:25 87.28 13.04 6.2
9/23/2004 11:55 86.55 13.6 6.5
9/23/2004 12:25 88.01 13.58 6.2
9/23/2004 12:55 89.48 14.62 6.2
9/23/2004 13:25 90.22 14.02 5.9
9/23/2004 13:55 89.48 20.8 8.1
9/23/2004 14:25 90.22 21.34 8.1
9/23/2004 14:55 90.96 25.68 9.5
9/23/2004 15:25 88.74 25.72 10.2
9/23/2004 15:55 86.55 26.52 11.3
9/23/2004 16:25 85.1 26.86 12
9/23/2004 16:55 84.38 25.48 11.6
9/23/2004 17:25 81.53 23.28 11.6
9/23/2004 17:55 80.12 24.34 12.7
9/23/2004 18:25 78.01 26.68 15
9/23/2004 18:55 77.31 26.76 15.4
9/23/2004 19:25 75.92 27.46 16.6
9/23/2004 19:55 75.22 26.9 16.6
9/23/2004 20:25 72.46 23.5 15.8
9/23/2004 20:55 71.77 19.92 13.9
9/23/2004 21:25 70.39 19.5 14.3
9/23/2004 21:55 69.02 17.76 13.9
9/23/2004 22:25 69.71 17.62 13.5
9/23/2004 22:55 69.71 18.96 14.3
9/23/2004 23:25 67.65 18.42 15
9/23/2004 23:55 66.28 18.54 15.8
9/24/2004 0:25 64.22 19.24 17.5
9/24/2004 0:55 64.22 19.78 17.9
9/24/2004 1:25 63.54 20.24 18.7
9/24/2004 1:55 61.48 20.12 20
9/24/2004 2:25 60.8 21.02 21.3
9/24/2004 2:55 61.48 23 22.6
9/24/2004 3:25 60.8 22.82 23
9/24/2004 3:55 62.85 23.6 22.1
9/24/2004 4:25 60.11 22.76 23.5
9/24/2004 4:55 59.42 22.18 23.5
9/24/2004 5:25 59.42 21.26 22.6
9/24/2004 5:55 59.42 18.86 20.4
9/24/2004 6:25 59.42 18.86 20.4
9/24/2004 6:55 66.28 20.24 17
9/24/2004 7:25 71.08 17.3 12.7
9/24/2004 7:55 76.62 16.52 10.2
9/24/2004 8:25 79.41 15.24 8.8
9/24/2004 8:55 82.24 13.7 7.5
9/24/2004 9:25 85.1 17.58 8.1
9/24/2004 9:55 85.83 15.4 7.2
9/24/2004 10:25 87.28 11.94 5.9
9/24/2004 10:55 88.74 14.1 6.2
9/24/2004 11:25 90.96 13.36 5.6
9/24/2004 11:55 92.46 13.18 5.3
9/24/2004 12:25 90.96 12.12 5.3
9/24/2004 12:55 95.49 13.06 4.8
9/24/2004 13:25 93.97 10.56 4.5
9/24/2004 13:55 94.73 14.76 5.3
9/24/2004 14:25 93.97 24.1 8.1
9/24/2004 14:55 91.71 22.44 8.1
9/24/2004 15:25 90.96 21 7.8
9/24/2004 15:55 89.48 19 7.5
9/24/2004 16:25 88.74 17.52 7.2
9/24/2004 16:55 86.55 17.76 7.8
9/24/2004 17:25 84.38 18.96 8.8
9/24/2004 17:55 82.24 19.14 9.5
9/24/2004 18:25 79.41 17 9.5
9/24/2004 18:55 77.31 17.72 10.5
9/24/2004 19:25 75.22 17.82 11.3
9/24/2004 19:55 73.84 18.14 12
9/24/2004 20:25 72.46 17.82 12.4
9/24/2004 20:55 73.15 23.44 15.4
9/24/2004 21:25 70.39 21.84 15.8
9/24/2004 21:55 70.39 23 16.6
9/24/2004 22:25 69.02 24.2 18.3
9/24/2004 22:55 67.65 23.08 18.3
9/24/2004 23:25 66.96 22 17.9
9/24/2004 23:55 66.28 21.98 18.3
9/25/2004 0:25 65.59 21.92 18.7
9/25/2004 0:55 64.91 21.86 19.1
9/25/2004 1:25 64.91 21.86 19.1
9/25/2004 1:55 64.22 21.78 19.5
9/25/2004 2:25 63.54 21.22 19.5
9/25/2004 2:55 63.54 21.22 19.5
9/25/2004 3:25 63.54 21.22 19.5
9/25/2004 3:55 63.54 21.82 20
9/25/2004 4:25 62.17 22.16 21.3
9/25/2004 4:55 62.85 23.6 22.1
9/25/2004 5:25 62.85 24.56 23
9/25/2004 5:55 62.17 24.9 23.9
9/25/2004 6:25 62.17 24.9 23.9
9/25/2004 6:55 69.02 26.82 20.4
9/25/2004 7:25 73.84 25.2 16.2
9/25/2004 7:55 79.41 24.54 13.1
9/25/2004 8:25 81.53 24.1 12
9/25/2004 8:55 84.38 23.1 10.5
9/25/2004 9:25 87.28 21.9 9.1
9/25/2004 9:55 88.01 20.84 8.5
9/25/2004 10:25 90.22 18.6 7.2
9/25/2004 10:55 91.71 15.08 5.9
9/25/2004 11:25 91.71 16.22 6.2
9/25/2004 11:55 93.97 16.68 5.9
9/25/2004 12:25 93.97 17.82 6.2
9/25/2004 12:55 93.97 18.92 6.5
9/25/2004 13:25 93.97 16.68 5.9
9/25/2004 13:55 93.21 16.14 5.9
9/25/2004 14:25 93.21 19.78 6.9
9/25/2004 14:55 93.21 21.72 7.5
9/25/2004 15:25 93.21 33.92 12.4
9/25/2004 15:55 89.48 35.1 14.6
9/25/2004 16:25 88.74 33.28 13.9
9/25/2004 16:55 87.28 29.34 12.4
9/25/2004 17:25 85.1 29.72 13.5
9/25/2004 17:55 82.95 30.6 15
9/25/2004 18:25 80.82 30.8 16.2
9/25/2004 18:55 78.71 30.28 17
9/25/2004 19:25 77.31 30.42 17.9
9/25/2004 19:55 76.62 30.92 18.7
9/25/2004 20:25 74.53 29.74 19.1
9/25/2004 20:55 73.15 30.7 20.8
9/25/2004 21:25 72.46 31.18 21.7
9/25/2004 21:55 71.77 30.6 21.7
9/25/2004 22:25 70.39 29.46 21.7
9/25/2004 22:55 69.71 29.32 22.1
9/25/2004 23:25 69.71 28.88 21.7
9/25/2004 23:55 69.02 27.28 20.8
9/26/2004 0:25 69.02 26.82 20.4
9/26/2004 0:55 69.02 25.24 19.1
9/26/2004 1:25 67.65 26.14 20.8
9/26/2004 1:55 66.96 25.12 20.4
9/26/2004 2:25 66.28 25.02 20.8
9/26/2004 2:55 65.59 25.02 21.3
9/26/2004 3:25 65.59 25.02 21.3
9/26/2004 3:55 65.59 25.9 22.1
9/26/2004 4:25 65.59 25.9 22.1
9/26/2004 4:55 64.91 26.28 23
9/26/2004 5:25 64.91 26.28 23
9/26/2004 5:55 64.91 26.8 23.5
9/26/2004 6:25 64.91 26.8 23.5
9/26/2004 6:55 70.39 26.86 19.5
9/26/2004 7:25 75.22 25.1 15.4
9/26/2004 7:55 81.53 25.44 12.7
9/26/2004 8:25 82.95 23.76 11.3
9/26/2004 8:55 85.83 20.82 9.1
9/26/2004 9:25 89.48 20.8 8.1
9/26/2004 9:55 90.96 21.9 8.1
9/26/2004 10:25 93.97 21.32 7.2
9/26/2004 10:55 93.97 18.92 6.5
9/26/2004 11:25 94.73 19.48 6.5
9/26/2004 11:55 95.49 23.38 7.5
9/26/2004 12:25 96.26 25.8 8.1
9/26/2004 12:55 96.26 24.88 7.8
9/26/2004 13:25 95.49 23.38 7.5
9/26/2004 13:55 95.49 23.38 7.5
9/26/2004 14:25 95.49 22.42 7.2
9/26/2004 14:55 94.73 21.86 7.2
9/26/2004 15:25 94.73 22.84 7.5
9/26/2004 15:55 93.21 19.78 6.9
9/26/2004 16:25 93.21 21.72 7.5
9/26/2004 16:55 91.71 19.68 7.2
9/26/2004 17:25 90.22 22.48 8.5
9/26/2004 17:55 88.01 24.2 9.8
9/26/2004 18:25 85.1 37.3 18.3
9/26/2004 18:55 82.24 36.56 19.5
9/26/2004 19:25 80.82 37.04 20.8
9/26/2004 19:55 79.41 36.94 21.7
9/26/2004 20:25 78.01 36.8 22.6
9/26/2004 20:55 77.31 37.22 23.5
9/26/2004 21:25 75.22 35.46 23.5
9/26/2004 21:55 73.84 33.32 22.6
9/26/2004 22:25 73.15 33.18 23
9/26/2004 22:55 73.15 33.72 23.5
9/26/2004 23:25 72.46 30.72 21.3
9/26/2004 23:55 71.08 29.58 21.3
9/27/2004 0:25 70.39 27.94 20.4
9/27/2004 0:55 70.39 27.46 20
9/27/2004 1:25 70.39 26.86 19.5
9/27/2004 1:55 69.02 27.28 20.8
9/27/2004 2:25 69.02 28.32 21.7
9/27/2004 2:55 69.02 28.76 22.1
9/27/2004 3:25 66.96 28 23
9/27/2004 3:55 66.96 28 23
9/27/2004 4:25 65.59 27.38 23.5
9/27/2004 4:55 65.59 26.86 23
9/27/2004 5:25 64.91 25.86 22.6
9/27/2004 5:55 64.91 25.32 22.1
9/27/2004 6:25 65.59 25.02 21.3
9/27/2004 6:55 71.77 26.46 18.3
9/27/2004 7:25 80.12 25.8 13.5
9/27/2004 7:55 85.1 27.64 12.4
9/27/2004 8:25 85.83 30.28 13.5
9/27/2004 8:55 88.74 31.82 13.1
9/27/2004 9:25 90.22 29.32 11.3
9/27/2004 9:55 91.71 27.96 10.2
9/27/2004 10:25 93.21 28.12 9.8
9/27/2004 10:55 93.97 30.38 10.5
9/27/2004 11:25 93.97 30.38 10.5
9/27/2004 11:55 94.73 32.78 11.3
9/27/2004 12:25 95.49 29.84 9.8
9/27/2004 12:55 97.04 33.64 10.9
9/27/2004 13:25 97.82 39.64 13.5
9/27/2004 13:55 96.26 39.18 13.9
9/27/2004 14:25 94.73 37.24 13.5
9/27/2004 14:55 93.97 35.88 13.1
9/27/2004 15:25 93.97 38.1 14.3
9/27/2004 15:55 91.71 38.86 15.8
9/27/2004 16:25 90.96 39.52 16.6
9/27/2004 16:55 88.74 39.1 17.5
9/27/2004 17:25 86.55 40.1 19.5
9/27/2004 17:55 85.1 41.18 21.3
9/27/2004 18:25 82.95 43.86 25.3
9/27/2004 18:55 80.82 44.32 27.6
9/27/2004 19:25 80.12 44.18 28.1
9/27/2004 19:55 78.01 42.38 28.1
9/27/2004 20:25 77.31 42.16 28.5
9/27/2004 20:55 75.22 40.82 29
9/27/2004 21:25 74.53 41.1 30
9/27/2004 21:55 73.84 41.26 30.9
9/27/2004 22:25 72.46 40.48 31.4
9/27/2004 22:55 72.46 41.68 32.9
9/27/2004 23:25 71.77 42.9 35.3
9/27/2004 23:55 70.39 42.42 36.3
9/28/2004 0:25 69.71 43.86 39.3
9/28/2004 0:55 69.02 44.24 40.8
9/28/2004 1:25 68.33 45.24 43.4
9/28/2004 1:55 68.33 45.84 44.4
9/28/2004 2:25 67.65 44.62 43.4
9/28/2004 2:55 66.96 44 43.4
9/28/2004 3:25 66.28 43.68 43.9
9/28/2004 3:55 66.28 43.68 43.9
9/28/2004 4:25 64.91 42.44 43.9
9/28/2004 4:55 63.54 40.9 43.4
9/28/2004 5:25 62.85 40.58 43.9
9/28/2004 5:55 62.85 40.88 44.4
9/28/2004 6:25 63.54 40.9 43.4
9/28/2004 6:55 69.71 42.5 37.3
9/28/2004 7:25 75.22 37.32 25.3
9/28/2004 7:55 80.12 32.7 17.9
9/28/2004 8:25 80.82 31.4 16.6
9/28/2004 8:55 82.24 30.68 15.4
9/28/2004 9:25 83.67 30.5 14.6
9/28/2004 9:55 85.1 28.98 13.1
9/28/2004 10:25 87.28 29.34 12.4
9/28/2004 10:55 88.74 29.66 12
9/28/2004 11:25 90.22 33.72 13.5
9/28/2004 11:55 90.96 27.4 10.2
9/28/2004 12:25 90.96 29.02 10.9
9/28/2004 12:55 91.71 31.1 11.6
9/28/2004 13:25 90.96 31.36 12
9/28/2004 13:55 90.96 32.18 12.4
9/28/2004 14:25 90.22 31.6 12.4
9/28/2004 14:55 89.48 32.38 13.1
9/28/2004 15:25 88.74 36.5 15.8
9/28/2004 15:55 88.01 41.94 20
9/28/2004 16:25 85.1 40.56 20.8
9/28/2004 16:55 82.95 44.76 26.2
9/28/2004 17:25 80.12 41.86 25.7
9/28/2004 17:55 78.01 42.76 28.5
9/28/2004 18:25 75.92 46.92 35.8
9/28/2004 18:55 73.84 45.46 36.3
9/28/2004 19:25 72.46 42.76 34.3
9/28/2004 19:55 71.77 42.9 35.3
9/28/2004 20:25 70.39 43.12 37.3
9/28/2004 20:55 69.71 44.86 40.8
9/28/2004 21:25 69.02 45.86 43.4
9/28/2004 21:55 67.65 46.72 47
9/28/2004 22:25 65.59 44.84 47
9/28/2004 22:55 65.59 45.4 48
9/28/2004 23:25 64.22 45.54 50.6
9/28/2004 23:55 62.85 45.04 52.1
9/29/2004 0:25 62.17 45.2 53.7
9/29/2004 0:55 61.48 45.8 56.3
9/29/2004 1:25 61.48 45.34 55.3
9/29/2004 1:55 60.11 45.48 58.4
9/29/2004 2:25 59.42 46.42 62
9/29/2004 2:55 58.73 47.46 66.1
9/29/2004 3:25 58.04 47.98 69.1
9/29/2004 3:55 57.35 48.3 71.7
9/29/2004 4:25 56.66 48.16 73.1
9/29/2004 4:55 55.28 48.38 77.5
9/29/2004 5:25 55.28 48.06 76.6
9/29/2004 5:55 55.28 48.72 78.5
9/29/2004 6:25 55.97 49.86 79.9
9/29/2004 6:55 58.04 51.4 78.5
9/29/2004 7:25 58.73 50.52 74.1
9/29/2004 7:55 61.48 51.46 69.6
9/29/2004 8:25 60.8 50.02 67.6
9/29/2004 8:55 62.85 49.86 62.5
9/29/2004 9:25 65.59 46.52 50.1
9/29/2004 9:55 67.65 45.8 45.4
9/29/2004 10:25 71.08 44.76 38.8
9/29/2004 10:55 73.15 44.48 35.8
9/29/2004 11:25 74.53 45.32 35.3
9/29/2004 11:55 75.22 43.28 31.9
9/29/2004 12:25 76.62 41.56 28.5
9/29/2004 12:55 78.01 43.2 29
9/29/2004 13:25 78.01 42.76 28.5
9/29/2004 13:55 78.01 42.76 28.5
9/29/2004 14:25 77.31 44.26 30.9
9/29/2004 14:55 77.31 42.16 28.5
9/29/2004 15:25 75.92 42.64 30.4
9/29/2004 15:55 74.53 43.48 32.9
9/29/2004 16:25 73.15 43.36 34.3
9/29/2004 16:55 71.77 45.38 38.8
9/29/2004 17:25 69.02 46.76 44.9
9/29/2004 17:55 66.28 47.42 50.6
9/29/2004 18:25 64.91 49.46 57.3
9/29/2004 18:55 63.54 49.86 61
9/29/2004 19:25 62.17 50.1 64.6
9/29/2004 19:55 60.8 50.62 69.1
9/29/2004 20:25 59.42 49.68 70.1
9/29/2004 20:55 58.73 49.62 71.7
9/29/2004 21:25 58.04 49.3 72.6
9/29/2004 21:55 57.35 49.72 75.6
9/29/2004 22:25 56.66 49.54 77
9/29/2004 22:55 56.66 50.06 78.5
9/29/2004 23:25 56.66 50.06 78.5
9/29/2004 23:55 57.35 50.38 77.5
9/30/2004 0:25 58.04 50.74 76.6
9/30/2004 0:55 56.66 49.9 78
9/30/2004 1:25 56.66 50.06 78.5
9/30/2004 1:55 55.28 49.66 81.3
9/30/2004 2:25 54.58 49.72 83.6
9/30/2004 2:55 53.89 49.62 85.4
9/30/2004 3:25 53.19 49.08 85.9
9/30/2004 3:55 53.19 50.4 90.2
9/30/2004 4:25 53.19 50.24 89.7
9/30/2004 4:55 52.49 49.56 89.7
9/30/2004 5:25 51.79 49.12 90.6
9/30/2004 5:55 52.49 49.94 91
9/30/2004 6:25 52.49 49.44 89.3
9/30/2004 6:55 56.66 52.74 86.7
9/30/2004 7:25 59.42 49.3 69.1
9/30/2004 7:55 60.8 47.92 62.5
9/30/2004 8:25 62.17 47.86 59.4
9/30/2004 8:55 63.54 47.24 55.3
9/30/2004 9:25 64.22 46.86 53.2
9/30/2004 9:55 65.59 46.52 50.1
9/30/2004 10:25 66.96 46.1 47
9/30/2004 10:55 68.33 46.14 44.9
9/30/2004 11:25 70.39 44.82 39.8
9/30/2004 11:55 71.77 44.34 37.3
9/30/2004 12:25 72.46 45.3 37.8
9/30/2004 12:55 74.53 42.68 31.9
9/30/2004 13:25 74.53 42.68 31.9
9/30/2004 13:55 75.22 41.26 29.5
9/30/2004 14:25 75.22 42.88 31.4
9/30/2004 14:55 74.53 45.7 35.8
9/30/2004 15:25 73.15 46.6 38.8
9/30/2004 15:55 72.46 47.64 41.3
9/30/2004 16:25 71.08 48.32 44.4
9/30/2004 16:55 69.02 48.54 48
9/30/2004 17:25 66.96 48.84 52.1
9/30/2004 17:55 65.59 49.4 55.8
9/30/2004 18:25 63.54 48.7 58.4
9/30/2004 18:55 62.85 48.74 59.9
9/30/2004 19:25 61.48 48.36 62
9/30/2004 19:55 60.8 48.14 63
9/30/2004 20:25 60.11 48.36 65.1
9/30/2004 20:55 59.42 48.9 68.1
9/30/2004 21:25 58.73 48.44 68.6
9/30/2004 21:55 58.73 49.02 70.1
9/30/2004 22:25 58.04 49.48 73.1
9/30/2004 22:55 57.35 50.08 76.6
9/30/2004 23:25 56.66 49.9 78
9/30/2004 23:55 55.97 50.34 81.3